Bemidji, Minnesota
Current Conditions -  °F | °C
As of 9:12 AM on Thursday 18 Dec 2014 (Local Time) from KBJI Reporting Station
Clear Clear  
Wind Chill: -13°   Ceiling: Unl
Heat Index: -13°   Visibility: 10mi
Dew Point: -15°   Wind: 3mph
Humidity: 89%   Direction: 120°ESE
Pressure: 30.25"   Gusts: NA
Location:  47.47°N, 94.88°W
Report Text: KBJI 181512Z AUTO 12003KT 10SM CLR M13/M15 A3025 RMK AO2 T11311146
Loading
Personal Weather Stations






























Interactive Weather Map New forecast layout! Learn more

10-Day Weather Forecast

Advertisements
Track Severe Weather on mobile